Time;durP1;ratioP1;P1;durP2;ratioP2;P2;SDS_P1;SDS_P2;PMS_P1;PMS_P2;Temp;Humidity;BMP_temperature;BMP_pressure;BME280_temperature;BME280_humidity;BME280_pressure;Samples;Min_cycle;Max_cycle;Signal;HPM_P1;HPM_P2
2021/12/04 00:00:02;;;;;;;22.93;11.20;;;;;;;2.42;71.59;100487.05;126330;1099;104226;-81
2021/12/04 00:02:54;;;;;;;25.00;11.27;;;;;;;2.41;71.83;100489.53;125913;1099;104162;-80
2021/12/04 00:05:25;;;;;;;24.00;10.63;;;;;;;2.38;71.86;100490.20;126358;1099;104155;-81
2021/12/04 00:07:57;;;;;;;25.57;10.90;;;;;;;2.37;71.79;100497.87;125755;1099;104306;-82
2021/12/04 00:10:30;;;;;;;21.37;10.00;;;;;;;2.37;71.84;100495.28;125574;1099;104178;-81
2021/12/04 00:13:02;;;;;;;20.57;10.20;;;;;;;2.35;71.39;100487.41;125565;1099;104162;-81
2021/12/04 00:15:33;;;;;;;21.97;10.03;;;;;;;2.33;71.55;100492.48;125575;1099;104258;-81
2021/12/04 00:18:05;;;;;;;23.70;11.80;;;;;;;2.35;71.65;100495.17;126033;1099;104149;-81
2021/12/04 00:20:41;;;;;;;23.27;10.70;;;;;;;2.36;71.82;100491.80;125773;1099;104302;-82
2021/12/04 00:23:14;;;;;;;24.33;11.77;;;;;;;2.31;71.66;100488.02;126319;1099;104160;-81
2021/12/04 00:25:46;;;;;;;22.40;10.63;;;;;;;2.28;71.57;100480.03;126340;1099;104158;-82
2021/12/04 00:28:17;;;;;;;26.03;9.90;;;;;;;2.23;71.61;100471.95;125296;1099;104174;-80
2021/12/04 00:30:50;;;;;;;23.33;10.43;;;;;;;2.22;71.30;100482.20;125529;1099;104188;-80
2021/12/04 00:33:24;;;;;;;23.40;9.93;;;;;;;2.21;71.56;100483.88;125515;1099;104203;-81
2021/12/04 00:35:58;;;;;;;24.93;11.47;;;;;;;2.19;71.85;100484.58;125504;1099;104198;-81
2021/12/04 00:49:46;;;;;;;22.33;10.83;;;;;;;2.20;72.19;100483.77;125336;1099;104277;-82
2021/12/04 00:52:18;;;;;;;22.83;10.70;;;;;;;2.21;71.73;100486.45;125366;1099;104207;-81
2021/12/04 00:54:50;;;;;;;24.25;10.70;;;;;;;2.20;71.52;100481.17;125268;1102;103268;-81
2021/12/04 00:57:21;;;;;;;27.63;12.37;;;;;;;2.18;71.88;100483.66;125353;1099;104345;-80
2021/12/04 00:59:52;;;;;;;24.03;11.50;;;;;;;2.18;71.57;100498.30;126109;1098;104147;-81
2021/12/04 01:02:24;;;;;;;22.00;10.83;;;;;;;2.21;71.88;100498.52;126274;1099;104249;-82
2021/12/04 01:04:55;;;;;;;20.23;9.90;;;;;;;2.23;71.47;100499.51;126359;1099;104152;-81
2021/12/04 01:07:27;;;;;;;21.03;10.57;;;;;;;2.22;71.97;100500.33;126321;1099;104149;-82
2021/12/04 01:09:58;;;;;;;24.30;11.60;;;;;;;2.17;71.92;100500.01;125202;1102;104675;-82
2021/12/04 01:12:30;;;;;;;22.83;10.60;;;;;;;2.19;71.65;100497.52;125261;1102;104159;-81
2021/12/04 01:15:01;;;;;;;23.00;11.25;;;;;;;2.12;71.39;100489.33;125468;1099;104175;-82
2021/12/04 01:17:33;;;;;;;23.47;11.30;;;;;;;2.08;71.22;100489.02;125443;1099;104172;-81
2021/12/04 01:20:05;;;;;;;21.80;9.80;;;;;;;2.07;71.27;100489.80;125286;1100;104296;-81
2021/12/04 01:22:37;;;;;;;23.15;10.75;;;;;;;2.07;71.45;100482.03;125462;1099;104291;-82
2021/12/04 01:25:09;;;;;;;25.10;10.77;;;;;;;2.04;71.19;100485.33;125365;1099;104322;-81
2021/12/04 01:27:42;;;;;;;21.50;10.03;;;;;;;2.01;71.75;100487.70;125436;1099;104296;-80
2021/12/04 01:30:14;;;;;;;23.30;11.17;;;;;;;1.98;71.75;100480.61;126119;1099;104168;-81
2021/12/04 01:32:46;;;;;;;23.70;11.27;;;;;;;1.96;71.09;100483.88;126353;1099;104181;-81
2021/12/04 01:35:17;;;;;;;23.87;11.17;;;;;;;1.95;71.77;100492.45;126346;1099;104139;-81
2021/12/04 01:37:49;;;;;;;23.70;10.77;;;;;;;1.93;71.47;100494.92;126330;1099;104181;-81
2021/12/04 01:40:20;;;;;;;24.27;11.03;;;;;;;1.94;71.31;100500.99;125481;1099;104147;-81
2021/12/04 01:42:51;;;;;;;26.30;10.53;;;;;;;1.92;71.38;100492.23;125241;1099;104252;-81
2021/12/04 01:45:22;;;;;;;23.17;10.77;;;;;;;1.91;71.65;100495.60;125436;1099;104150;-81
2021/12/04 01:48:00;;;;;;;24.03;10.93;;;;;;;1.91;71.60;100491.31;125388;1099;104306;-80
2021/12/04 01:50:34;;;;;;;23.20;10.50;;;;;;;1.93;71.76;100501.77;125961;1099;105492;-81
2021/12/04 01:53:06;;;;;;;22.65;10.85;;;;;;;1.95;71.39;100498.52;126399;1099;104152;-80
2021/12/04 01:55:38;;;;;;;25.27;11.63;;;;;;;1.94;70.73;100496.70;125624;1098;104159;-81
2021/12/04 01:58:10;;;;;;;22.57;10.60;;;;;;;1.89;71.33;100498.08;126362;1099;104256;-80
2021/12/04 02:00:42;;;;;;;23.63;10.87;;;;;;;1.90;71.82;100497.30;125519;1099;104166;-81
2021/12/04 02:03:14;;;;;;;21.63;9.80;;;;;;;1.91;71.40;100500.77;125187;1099;104162;-82
2021/12/04 02:05:46;;;;;;;23.47;10.30;;;;;;;1.93;71.46;100501.77;125279;1099;104149;-81
2021/12/04 02:08:20;;;;;;;23.50;11.57;;;;;;;1.96;71.28;100499.40;125223;1099;104152;-81
2021/12/04 02:10:54;;;;;;;23.37;10.60;;;;;;;2.02;71.38;100496.35;125887;1099;104210;-81
2021/12/04 02:13:25;;;;;;;22.97;11.10;;;;;;;2.01;71.36;100490.29;126103;1099;104156;-81
2021/12/04 02:16:01;;;;;;;22.97;10.33;;;;;;;2.03;71.52;100504.22;125240;1099;104317;-82
2021/12/04 02:18:33;;;;;;;24.07;10.77;;;;;;;2.01;71.60;100505.81;126229;1099;104149;-82
2021/12/04 02:21:04;;;;;;;22.37;10.57;;;;;;;2.01;71.26;100513.58;125814;1099;104251;-82
2021/12/04 02:23:35;;;;;;;22.67;10.73;;;;;;;2.02;70.90;100504.12;125756;1098;104159;-81
2021/12/04 02:26:07;;;;;;;24.00;10.60;;;;;;;2.02;71.43;100499.83;125793;1099;104282;-81
2021/12/04 02:28:39;;;;;;;26.00;11.10;;;;;;;2.03;71.41;100505.92;125699;1099;104249;-82
2021/12/04 02:31:10;;;;;;;23.17;10.80;;;;;;;1.96;71.04;100504.58;126166;1099;105489;-82
2021/12/04 02:33:42;;;;;;;21.73;9.83;;;;;;;1.91;70.68;100499.08;126326;1099;104258;-82
2021/12/04 02:36:13;;;;;;;21.15;9.75;;;;;;;1.94;71.44;100507.05;126363;1098;104265;-81
2021/12/04 02:38:49;;;;;;;22.13;10.57;;;;;;;1.95;71.14;100507.97;126350;1099;104309;-81
2021/12/04 02:41:22;;;;;;;23.03;10.97;;;;;;;1.93;71.58;100509.53;125799;1099;104149;-83
2021/12/04 02:43:53;;;;;;;23.30;10.90;;;;;;;1.90;71.24;100518.00;125726;1099;104246;-81
2021/12/04 02:46:34;;;;;;;23.07;10.97;;;;;;;1.87;71.77;100516.86;125706;1099;104152;-82
2021/12/04 02:49:10;;;;;;;21.80;10.40;;;;;;;1.86;71.39;100520.27;125732;1099;104178;-82
2021/12/04 02:51:41;;;;;;;22.00;9.57;;;;;;;1.86;71.11;100512.50;126183;1098;104278;-82
2021/12/04 02:54:13;;;;;;;21.13;10.30;;;;;;;1.86;71.11;100508.22;126326;1099;104153;-80
2021/12/04 02:56:49;;;;;;;23.67;11.33;;;;;;;1.86;71.45;100513.39;126313;1099;104162;-82
2021/12/04 02:59:21;;;;;;;23.10;10.13;;;;;;;1.86;71.19;100507.33;125337;1099;104342;-83
2021/12/04 03:01:56;;;;;;;23.83;10.97;;;;;;;1.86;70.88;100496.98;125240;1100;104254;-83
2021/12/04 03:04:28;;;;;;;25.20;11.25;;;;;;;1.84;71.05;100489.11;125680;1099;104287;-81
2021/12/04 03:07:00;;;;;;;25.13;11.20;;;;;;;1.82;71.14;100484.60;125599;1099;104149;-82
2021/12/04 03:09:31;;;;;;;22.17;10.07;;;;;;;1.80;71.01;100495.73;125677;1099;104172;-82
2021/12/04 03:12:06;;;;;;;27.30;11.53;;;;;;;1.77;70.79;100497.22;126118;1099;104156;-81
2021/12/04 03:14:38;;;;;;;22.37;11.37;;;;;;;1.75;71.05;100493.63;126379;1099;104162;-82
2021/12/04 03:17:10;;;;;;;22.07;10.67;;;;;;;1.74;70.96;100484.95;126360;1099;104325;-82
2021/12/04 03:19:41;;;;;;;23.20;11.30;;;;;;;1.75;71.52;100489.34;126279;1099;104692;-82
2021/12/04 03:22:15;;;;;;;24.37;11.37;;;;;;;1.75;71.49;100480.70;125708;1099;104149;-82
2021/12/04 03:24:47;;;;;;;24.30;10.83;;;;;;;1.73;71.18;100479.66;125675;1099;104163;-82
2021/12/04 03:27:20;;;;;;;22.73;11.27;;;;;;;1.69;71.14;100483.73;125264;1102;104222;-82
2021/12/04 03:29:55;;;;;;;24.10;10.90;;;;;;;1.70;71.25;100490.72;125664;1099;104752;-83
2021/12/04 03:35:26;;;;;;;24.27;11.60;;;;;;;1.77;70.73;100494.63;126340;1099;104145;-83
2021/12/04 03:40:54;;;;;;;25.50;11.10;;;;;;;1.78;71.06;100499.02;126302;1099;104147;-81
2021/12/04 03:43:29;;;;;;;21.83;10.63;;;;;;;1.81;71.25;100504.41;125583;1099;118914;-82
2021/12/04 03:46:03;;;;;;;22.83;10.13;;;;;;;1.88;71.14;100504.03;125567;1099;104201;-82
2021/12/04 03:48:51;;;;;;;24.05;11.45;;;;;;;1.86;71.14;100507.33;125633;1099;104146;-82
2021/12/04 03:51:23;;;;;;;22.87;10.50;;;;;;;1.87;71.47;100515.20;125614;1099;104608;-82
2021/12/04 03:53:55;;;;;;;24.33;11.30;;;;;;;1.84;71.57;100519.23;126324;1099;104147;-82
2021/12/04 03:56:28;;;;;;;24.87;11.50;;;;;;;1.80;71.46;100525.89;126328;1099;104158;-81
2021/12/04 03:59:00;;;;;;;24.23;11.87;;;;;;;1.74;71.10;100534.10;126323;1099;104226;-81
2021/12/04 04:01:31;;;;;;;23.73;11.37;;;;;;;1.70;71.36;100534.70;125261;1099;104299;-82
2021/12/04 04:04:02;;;;;;;24.13;10.60;;;;;;;1.69;70.98;100535.47;125551;1099;104223;-82
2021/12/04 04:06:34;;;;;;;24.13;11.20;;;;;;;1.68;71.04;100537.95;125585;1099;104144;-82
2021/12/04 04:09:05;;;;;;;23.87;10.40;;;;;;;1.66;71.39;100530.08;125560;1099;104345;-82
2021/12/04 04:11:36;;;;;;;24.47;10.73;;;;;;;1.63;71.64;100524.69;125222;1099;104235;-82
2021/12/04 04:14:08;;;;;;;25.73;11.50;;;;;;;1.60;71.32;100530.53;125535;1099;104249;-82
2021/12/04 04:16:41;;;;;;;29.13;13.03;;;;;;;1.61;71.12;100534.92;125558;1099;104150;-83
2021/12/04 04:19:12;;;;;;;21.70;10.47;;;;;;;1.57;70.90;100535.52;125574;1099;104712;-83
2021/12/04 04:21:43;;;;;;;21.93;10.63;;;;;;;1.58;71.02;100526.94;125606;1099;104248;-83
2021/12/04 04:24:18;;;;;;;24.63;11.00;;;;;;;1.59;71.09;100527.83;125478;1099;104270;-83
2021/12/04 04:26:49;;;;;;;24.20;10.60;;;;;;;1.61;71.04;100518.52;126323;1099;104149;-82
2021/12/04 04:29:21;;;;;;;25.57;11.40;;;;;;;1.64;71.05;100522.98;125404;1099;105041;-82
2021/12/04 04:31:54;;;;;;;23.67;10.60;;;;;;;1.62;71.02;100522.88;126367;1099;104146;-81
2021/12/04 04:34:30;;;;;;;28.20;13.13;;;;;;;1.58;71.24;100520.88;125499;1099;119786;-82
2021/12/04 04:37:15;;;;;;;27.13;12.27;;;;;;;1.55;70.73;100516.38;125248;1100;104159;-83
2021/12/04 04:59:43;;;;;;;24.57;12.53;;;;;;;1.50;71.07;100506.52;125471;1099;104277;-82
2021/12/04 05:11:05;;;;;;;22.67;10.77;;;;;;;1.44;70.52;100510.43;126195;1099;104731;-80
2021/12/04 05:13:36;;;;;;;24.13;11.13;;;;;;;1.41;71.04;100501.56;125925;1099;104255;-81
2021/12/04 05:16:13;;;;;;;27.53;12.30;;;;;;;1.42;71.67;100509.43;125383;1099;104168;-82
2021/12/04 05:18:53;;;;;;;23.73;11.50;;;;;;;1.41;70.85;100507.63;125408;1099;104287;-81
2021/12/04 05:21:25;;;;;;;24.77;11.70;;;;;;;1.43;71.00;100511.23;125379;1099;104201;-81
2021/12/04 05:23:57;;;;;;;25.43;11.40;;;;;;;1.45;70.79;100503.59;125462;1099;104230;-81
2021/12/04 05:26:31;;;;;;;26.80;13.37;;;;;;;1.44;70.90;100510.43;126081;1099;104156;-81
2021/12/04 05:29:03;;;;;;;48.30;22.57;;;;;;;1.44;70.73;100504.38;126084;1099;104143;-81
2021/12/04 05:31:34;;;;;;;58.23;26.60;;;;;;;1.42;70.98;100513.72;126119;1099;104198;-81
2021/12/04 05:34:06;;;;;;;43.40;19.80;;;;;;;1.42;71.24;100521.47;125884;1099;104219;-81
2021/12/04 05:36:37;;;;;;;35.57;17.50;;;;;;;1.44;71.28;100522.47;125186;1100;104252;-81
2021/12/04 05:39:14;;;;;;;27.43;13.40;;;;;;;1.44;70.96;100525.94;125364;1099;104281;-82
2021/12/04 05:41:46;;;;;;;28.27;13.63;;;;;;;1.48;70.63;100524.50;125337;1099;104156;-82
2021/12/04 05:44:21;;;;;;;29.50;13.50;;;;;;;1.48;71.06;100531.34;125572;1099;104414;-82
2021/12/04 05:46:58;;;;;;;38.53;18.00;;;;;;;1.46;70.95;100541.58;126338;1099;104341;-82
2021/12/04 05:49:35;;;;;;;31.55;14.45;;;;;;;1.46;70.66;100538.09;126316;1099;104149;-82
2021/12/04 05:52:18;;;;;;;29.83;13.13;;;;;;;1.45;71.31;100539.80;126311;1099;104197;-83
2021/12/04 05:55:08;;;;;;;25.43;11.87;;;;;;;1.42;71.29;100535.29;125890;1099;104207;-83
2021/12/04 05:57:40;;;;;;;22.57;11.30;;;;;;;1.42;70.53;100534.41;125152;1102;104179;-83
2021/12/04 06:00:16;;;;;;;24.87;10.93;;;;;;;1.43;70.50;100534.52;125308;1099;104211;-83
2021/12/04 06:02:47;;;;;;;25.37;11.17;;;;;;;1.48;71.31;100532.27;125353;1099;104262;-82
2021/12/04 06:05:19;;;;;;;24.03;11.10;;;;;;;1.53;70.34;100527.42;125383;1099;104242;-82
2021/12/04 06:07:50;;;;;;;25.70;11.50;;;;;;;1.55;70.72;100531.89;126294;1099;104281;-83
2021/12/04 06:10:21;;;;;;;23.57;10.47;;;;;;;1.55;71.33;100536.18;126051;1099;104149;-80
2021/12/04 06:12:53;;;;;;;23.63;10.50;;;;;;;1.54;70.67;100542.13;126107;1099;104159;-80
2021/12/04 06:15:24;;;;;;;25.77;11.17;;;;;;;1.49;71.19;100527.98;125644;1099;104328;-80
2021/12/04 06:17:55;;;;;;;24.87;11.53;;;;;;;1.46;70.72;100535.52;125189;1102;104152;-80
2021/12/04 06:23:16;;;;;;;22.97;11.13;;;;;;;1.40;71.06;100530.78;125200;1099;104251;-80
2021/12/04 06:25:47;;;;;;;24.30;11.30;;;;;;;1.39;70.45;100526.42;126092;1099;104217;-80
2021/12/04 06:28:19;;;;;;;24.57;11.33;;;;;;;1.37;71.05;100527.97;126055;1099;104287;-80
2021/12/04 06:30:52;;;;;;;25.73;11.83;;;;;;;1.39;70.96;100524.72;125437;1099;104198;-81
2021/12/04 06:33:24;;;;;;;28.42;12.00;;;;;;;1.40;70.67;100515.27;126321;1099;104249;-82
2021/12/04 06:35:55;;;;;;;25.90;11.63;;;;;;;1.40;70.48;100529.12;126249;1099;104171;-82
2021/12/04 06:38:35;;;;;;;28.00;12.90;;;;;;;1.40;71.18;100533.37;126370;1099;104185;-82
2021/12/04 06:41:09;;;;;;;27.20;11.80;;;;;;;1.40;71.13;100535.95;126345;1099;102100;-81
2021/12/04 06:46:35;;;;;;;25.90;11.60;;;;;;;1.42;70.93;100540.46;125389;1099;101970;-81
2021/12/04 06:49:11;;;;;;;26.60;13.50;;;;;;;1.43;71.02;100523.25;126131;1099;104233;-81
2021/12/04 06:51:47;;;;;;;26.70;12.63;;;;;;;1.44;70.86;100528.53;126098;1099;104165;-81
2021/12/04 06:54:21;;;;;;;27.20;13.13;;;;;;;1.47;70.49;100532.15;126074;1099;104169;-81
2021/12/04 06:56:52;;;;;;;30.00;13.75;;;;;;;1.52;70.47;100535.95;126081;1099;104245;-81
2021/12/04 06:59:29;;;;;;;25.00;11.93;;;;;;;1.55;70.94;100528.42;125978;1099;104242;-81
2021/12/04 07:02:00;;;;;;;29.80;14.10;;;;;;;1.54;70.68;100529.20;125952;1098;104182;-81
2021/12/04 07:04:35;;;;;;;26.20;12.37;;;;;;;1.57;70.34;100529.42;125966;1099;104372;-81
2021/12/04 07:07:06;;;;;;;25.57;12.33;;;;;;;1.59;70.66;100533.00;125932;1099;102768;-81
2021/12/04 07:09:39;;;;;;;24.97;12.10;;;;;;;1.60;70.34;100530.53;126004;1099;104176;-81
2021/12/04 07:12:11;;;;;;;28.47;13.10;;;;;;;1.68;70.57;100525.02;126105;1099;104272;-81
2021/12/04 07:14:43;;;;;;;28.70;13.20;;;;;;;1.71;70.78;100522.65;126050;1099;104300;-81
2021/12/04 07:17:14;;;;;;;24.97;11.80;;;;;;;1.71;70.44;100523.53;126085;1099;102348;-81
2021/12/04 07:19:45;;;;;;;27.83;12.80;;;;;;;1.71;70.50;100523.53;125313;1099;104245;-82
2021/12/04 07:22:17;;;;;;;26.97;12.63;;;;;;;1.72;70.73;100529.63;126319;1099;104194;-81
2021/12/04 07:24:48;;;;;;;24.67;12.10;;;;;;;1.73;71.15;100524.56;126338;1099;104191;-81
2021/12/04 07:27:19;;;;;;;28.33;13.77;;;;;;;1.80;70.20;100519.02;126281;1099;104258;-81
2021/12/04 07:29:50;;;;;;;34.13;15.37;;;;;;;1.85;70.41;100527.11;126383;1099;104194;-82
2021/12/04 07:32:22;;;;;;;34.07;15.90;;;;;;;1.85;70.84;100532.28;126338;1099;104178;-83
2021/12/04 07:34:54;;;;;;;34.87;17.23;;;;;;;1.84;69.92;100532.17;126346;1099;104216;-81
2021/12/04 07:37:26;;;;;;;34.07;17.00;;;;;;;1.86;70.37;100521.16;126349;1099;104605;-82
2021/12/04 07:39:57;;;;;;;28.47;13.10;;;;;;;1.91;70.37;100521.48;126296;1098;104228;-82
2021/12/04 07:42:28;;;;;;;28.03;13.37;;;;;;;1.93;70.04;100514.71;126351;1099;104243;-82
2021/12/04 07:45:00;;;;;;;26.93;12.00;;;;;;;1.90;70.86;100520.59;126340;1099;104166;-82
2021/12/04 07:47:32;;;;;;;25.93;13.10;;;;;;;1.87;69.96;100529.80;126289;1099;104666;-82
2021/12/04 07:50:05;;;;;;;28.50;12.10;;;;;;;1.82;70.05;100529.47;125449;1099;104172;-82
2021/12/04 07:52:38;;;;;;;28.13;13.53;;;;;;;1.87;70.03;100530.72;126345;1099;104204;-82
2021/12/04 07:55:12;;;;;;;27.55;14.23;;;;;;;1.94;69.82;100521.69;126379;1098;104149;-82
2021/12/04 07:57:45;;;;;;;27.53;13.23;;;;;;;1.99;70.43;100528.08;126272;1099;104178;-81
2021/12/04 08:00:22;;;;;;;27.47;12.97;;;;;;;2.03;70.22;100531.81;126096;1098;104152;-81
2021/12/04 08:02:53;;;;;;;28.95;13.85;;;;;;;2.08;70.06;100538.20;126075;1099;104171;-81
2021/12/04 08:05:25;;;;;;;26.93;12.63;;;;;;;2.15;69.81;100536.14;126066;1098;104153;-81
2021/12/04 08:08:01;;;;;;;24.20;11.10;;;;;;;2.25;69.84;100539.38;126083;1099;104271;-81
2021/12/04 08:10:33;;;;;;;26.63;12.33;;;;;;;2.40;70.03;100532.67;126114;1099;104248;-81
2021/12/04 08:13:14;;;;;;;27.60;12.47;;;;;;;2.60;69.25;100526.27;125298;1099;104201;-81
2021/12/04 08:15:46;;;;;;;26.27;12.70;;;;;;;2.83;69.86;100526.89;126286;1099;104465;-82
2021/12/04 08:18:17;;;;;;;26.00;12.67;;;;;;;3.02;69.80;100526.42;126286;1099;101800;-82
2021/12/04 08:20:48;;;;;;;24.50;11.93;;;;;;;3.14;69.89;100516.86;126319;1099;104195;-83
2021/12/04 08:23:20;;;;;;;27.70;12.27;;;;;;;3.23;69.50;100514.87;126329;1099;104203;-82
2021/12/04 08:25:51;;;;;;;25.73;11.37;;;;;;;3.38;69.29;100511.47;126337;1099;104376;-82
2021/12/04 08:28:22;;;;;;;26.50;12.07;;;;;;;3.39;68.46;100508.08;126291;1099;104631;-82
2021/12/04 08:30:54;;;;;;;27.83;12.07;;;;;;;3.46;68.90;100501.58;126305;1099;104303;-82
2021/12/04 08:33:25;;;;;;;27.07;12.40;;;;;;;3.56;68.94;100499.67;126362;1099;104172;-82
2021/12/04 08:35:57;;;;;;;24.87;11.23;;;;;;;3.62;69.29;100501.77;125391;1099;104245;-81
2021/12/04 08:38:28;;;;;;;25.97;11.80;;;;;;;3.42;68.78;100497.91;126257;1099;104156;-82
2021/12/04 08:41:00;;;;;;;25.30;11.33;;;;;;;3.21;68.78;100503.51;126340;1099;104185;-82
2021/12/04 08:43:31;;;;;;;26.23;11.77;;;;;;;3.02;68.61;100495.31;126294;1099;104275;-81
2021/12/04 08:46:03;;;;;;;23.90;11.80;;;;;;;2.85;68.16;100492.52;126329;1099;104611;-83
2021/12/04 08:48:34;;;;;;;26.40;11.90;;;;;;;2.78;68.98;100485.13;125201;1102;104149;-82
2021/12/04 08:51:06;;;;;;;25.27;11.97;;;;;;;2.77;68.50;100480.73;125290;1102;104290;-82
2021/12/04 08:53:38;;;;;;;22.30;10.77;;;;;;;2.85;68.90;100474.37;125189;1102;104182;-82
2021/12/04 08:56:09;;;;;;;27.55;12.50;;;;;;;3.00;68.52;100473.59;125167;1102;104185;-82
2021/12/04 08:58:48;;;;;;;28.10;12.60;;;;;;;3.22;68.41;100466.38;125194;1102;104365;-82
2021/12/04 09:01:26;;;;;;;25.90;12.30;;;;;;;3.40;68.94;100464.08;125174;1102;104159;-82
2021/12/04 09:04:02;;;;;;;29.83;12.00;;;;;;;3.49;68.35;100455.08;125190;1102;104230;-83
2021/12/04 09:06:35;;;;;;;27.33;12.67;;;;;;;3.47;67.56;100446.31;125151;1102;104159;-83
2021/12/04 09:09:07;;;;;;;25.50;11.40;;;;;;;3.49;65.57;100443.03;125075;1102;104270;-82
2021/12/04 09:11:43;;;;;;;23.70;10.97;;;;;;;3.47;65.32;100438.53;125104;1102;104182;-82
2021/12/04 09:14:16;;;;;;;23.93;10.67;;;;;;;3.43;65.72;100434.86;125153;1102;104259;-83
2021/12/04 09:16:51;;;;;;;24.90;10.20;;;;;;;3.55;65.75;100429.52;125225;1102;104255;-82
2021/12/04 09:19:23;;;;;;;21.83;10.77;;;;;;;3.68;66.12;100424.31;125232;1102;104466;-83
2021/12/04 09:21:57;;;;;;;23.47;11.13;;;;;;;3.81;66.15;100425.07;126079;1099;104178;-82
2021/12/04 09:24:36;;;;;;;23.45;11.20;;;;;;;3.80;66.56;100411.17;126066;1099;104179;-82
2021/12/04 09:27:14;;;;;;;24.20;11.13;;;;;;;3.85;66.06;100401.98;126071;1099;104155;-82
2021/12/04 09:30:02;;;;;;;21.77;10.57;;;;;;;3.90;66.58;100391.89;126051;1099;104169;-81
2021/12/04 10:01:07;;;;;;;22.97;10.70;;;;;;;4.34;64.97;100380.64;126135;1099;104153;-82
2021/12/04 10:03:58;;;;;;;22.77;10.10;;;;;;;4.39;64.03;100378.31;126266;1099;104150;-82
2021/12/04 10:18:35;;;;;;;23.07;9.47;;;;;;;4.40;62.06;100369.72;125551;1099;104143;-83
2021/12/04 10:21:25;;;;;;;21.12;9.28;;;;;;;4.50;63.51;100365.15;126212;1099;104223;-82
2021/12/04 10:32:33;;;;;;;24.93;10.00;;;;;;;4.72;63.51;100352.47;126269;1098;108106;-82
2021/12/04 10:35:16;;;;;;;20.30;9.17;;;;;;;4.73;62.99;100351.67;126384;1099;104230;-82
2021/12/04 10:37:54;;;;;;;22.73;9.23;;;;;;;4.76;62.93;100339.73;126298;1099;104146;-81
2021/12/04 10:40:36;;;;;;;19.57;9.00;;;;;;;4.77;62.19;100340.62;126278;1099;104294;-81
2021/12/04 10:43:15;;;;;;;21.90;9.73;;;;;;;4.80;62.59;100341.71;126318;1099;104155;-82
2021/12/04 10:45:51;;;;;;;22.77;9.30;;;;;;;4.80;61.60;100341.71;126288;1099;104198;-82
2021/12/04 10:48:34;;;;;;;21.57;8.97;;;;;;;4.67;60.81;100334.02;126068;1099;104230;-82
2021/12/04 10:51:19;;;;;;;23.53;10.37;;;;;;;4.64;62.12;100329.56;126062;1099;104312;-82
2021/12/04 10:53:55;;;;;;;22.67;10.43;;;;;;;4.62;61.55;100330.27;126062;1099;104281;-82
2021/12/04 10:56:48;;;;;;;25.43;11.40;;;;;;;4.63;62.37;100322.56;126082;1099;104339;-82
2021/12/04 10:59:37;;;;;;;21.10;10.07;;;;;;;4.68;61.94;100315.91;126045;1099;104277;-81
2021/12/04 11:02:16;;;;;;;25.70;11.83;;;;;;;4.73;62.07;100305.77;126199;1099;104201;-82
2021/12/04 11:04:53;;;;;;;22.80;10.43;;;;;;;4.74;62.50;100297.17;126314;1099;104178;-82
2021/12/04 11:19:06;;;;;;;21.60;10.00;;;;;;;4.75;59.69;100287.66;125206;1102;104252;-82
2021/12/04 11:36:22;;;;;;;25.93;11.90;;;;;;;4.63;59.98;100254.98;125171;1102;104402;-82
2021/12/04 11:39:07;;;;;;;26.77;10.67;;;;;;;4.61;59.52;100256.62;125263;1102;104313;-82
2021/12/04 11:41:43;;;;;;;23.30;9.50;;;;;;;4.63;60.24;100257.58;125476;1102;104357;-81
2021/12/04 11:44:25;;;;;;;23.87;10.23;;;;;;;4.63;59.61;100249.78;126235;1099;104210;-82
2021/12/04 11:46:59;;;;;;;25.13;10.33;;;;;;;4.64;60.64;100250.67;126320;1099;104171;-82
2021/12/04 11:49:35;;;;;;;23.62;10.13;;;;;;;4.61;60.15;100240.10;126366;1099;104198;-82
2021/12/04 11:52:14;;;;;;;22.93;10.03;;;;;;;4.53;59.58;100237.08;126324;1099;104208;-82
2021/12/04 11:55:08;;;;;;;23.73;9.80;;;;;;;4.50;59.62;100235.23;126190;1099;104364;-82
2021/12/04 11:58:17;;;;;;;23.97;10.70;;;;;;;4.43;58.10;100243.48;126179;1099;104675;-83
2021/12/04 12:01:31;;;;;;;27.70;11.53;;;;;;;4.44;59.23;100233.97;126209;1099;104146;-81
2021/12/04 12:04:38;;;;;;;24.00;10.30;;;;;;;4.45;59.61;100244.45;126020;1099;104169;-81
2021/12/04 12:07:30;;;;;;;;;;;;;;;;;;;;;
2021/12/04 12:10:14;;;;;;;22.97;10.03;;;;;;;4.45;59.10;100235.77;126159;1099;104126;-81
2021/12/04 12:13:05;;;;;;;24.37;10.70;;;;;;;4.44;59.50;100236.56;126241;1099;104163;-80
2021/12/04 12:15:40;;;;;;;24.33;10.40;;;;;;;4.46;59.93;100229.77;126212;1099;105403;-82
2021/12/04 12:18:21;;;;;;;24.50;10.07;;;;;;;4.49;59.22;100229.94;126296;1099;104155;-80
2021/12/04 12:20:59;;;;;;;25.57;10.27;;;;;;;4.48;59.64;100229.03;126332;1099;104181;-80
2021/12/04 12:26:47;;;;;;;22.70;9.60;;;;;;;4.53;59.42;100229.28;126273;1099;104210;-82
2021/12/04 12:33:15;;;;;;;20.43;9.10;;;;;;;4.55;58.34;100214.70;126336;1099;104143;-81
2021/12/04 12:36:09;;;;;;;20.20;9.10;;;;;;;4.55;58.54;100218.97;126188;1099;104152;-80
2021/12/04 12:38:59;;;;;;;20.83;8.53;;;;;;;4.53;58.27;100218.89;126052;1098;104274;-80
2021/12/04 12:41:37;;;;;;;20.93;9.40;;;;;;;4.51;58.45;100217.92;126044;1099;104146;-81
2021/12/04 12:44:14;;;;;;;22.57;9.43;;;;;;;4.50;59.18;100221.31;126091;1098;104166;-82
2021/12/04 12:46:49;;;;;;;20.20;8.90;;;;;;;4.49;59.05;100215.23;126104;1099;104617;-82
2021/12/04 12:49:26;;;;;;;21.37;9.13;;;;;;;4.47;58.06;100213.35;126113;1099;104143;-82
2021/12/04 12:52:04;;;;;;;19.80;9.03;;;;;;;4.42;58.88;100209.62;126307;1099;104258;-81
2021/12/04 12:54:39;;;;;;;22.67;10.07;;;;;;;4.40;58.53;100212.12;126340;1099;104252;-82
2021/12/04 12:57:20;;;;;;;24.67;10.37;;;;;;;4.39;58.12;100212.05;126285;1099;110545;-81
2021/12/04 13:11:52;;;;;;;21.67;9.47;;;;;;;4.19;57.94;100193.66;126366;1099;104184;-83
2021/12/04 13:14:30;;;;;;;23.40;10.13;;;;;;;4.17;57.04;100190.05;126366;1099;104208;-81
2021/12/04 13:17:15;;;;;;;24.90;10.70;;;;;;;4.13;57.99;100190.71;126278;1099;104143;-81
2021/12/04 13:19:51;;;;;;;24.60;10.93;;;;;;;4.09;57.25;100192.22;126287;1099;104763;-82
2021/12/04 13:22:29;;;;;;;22.40;9.73;;;;;;;4.07;57.99;100191.25;126349;1099;104216;-82
2021/12/04 13:25:03;;;;;;;24.70;10.23;;;;;;;4.07;57.84;100195.56;126327;1099;104152;-82
2021/12/04 13:30:15;;;;;;;24.13;10.93;;;;;;;3.98;58.08;100187.25;126353;1099;104174;-82
2021/12/04 13:32:47;;;;;;;25.20;10.60;;;;;;;3.91;57.80;100191.17;126329;1099;104269;-82
2021/12/04 13:35:22;;;;;;;24.53;11.47;;;;;;;3.89;57.80;100197.98;126350;1099;104181;-82
2021/12/04 13:38:02;;;;;;;25.87;11.07;;;;;;;3.87;58.32;100197.02;126326;1099;104174;-82
2021/12/04 13:40:33;;;;;;;23.90;10.37;;;;;;;3.84;58.11;100195.12;126376;1099;104226;-81
2021/12/04 13:43:08;;;;;;;23.20;11.03;;;;;;;3.80;58.23;100194.86;126354;1099;104296;-82
2021/12/04 13:45:41;;;;;;;26.90;11.83;;;;;;;3.76;57.87;100193.80;126370;1099;104601;-82
2021/12/04 13:48:12;;;;;;;24.20;10.57;;;;;;;3.71;57.47;100193.53;126267;1099;104195;-82
2021/12/04 13:50:47;;;;;;;24.20;10.13;;;;;;;3.64;57.50;100191.37;126385;1097;104162;-81
2021/12/04 13:53:24;;;;;;;25.00;10.47;;;;;;;3.59;57.61;100187.62;126358;1099;104255;-80
2021/12/04 13:55:59;;;;;;;22.70;10.50;;;;;;;3.53;57.49;100187.27;126393;1099;104146;-80
2021/12/04 13:58:31;;;;;;;22.67;10.53;;;;;;;3.49;57.16;100183.60;126267;1099;104159;-82
2021/12/04 14:01:04;;;;;;;23.47;10.33;;;;;;;3.45;58.08;100185.92;126332;1099;104175;-82
2021/12/04 14:03:37;;;;;;;24.33;10.53;;;;;;;3.39;57.88;100179.55;126369;1099;104150;-81
2021/12/04 14:06:15;;;;;;;22.60;10.75;;;;;;;3.35;57.32;100181.87;126364;1099;104165;-81